Terminal Aerodrome Forecast
Issued by NWS Twin Cities, MN

Home | Current Version | Previous Version | Graphics & Text | Print | Product List | Glossary On
Versions: 1 2 3 4 5 6 7 8 9 10 11 12 13 14 15 16 17 18 19 20 21 22 23 24 25 26 27 28 29 30 31
019
FTUS43 KMPX 251120
TAFMSP
TAF
KMSP 251120Z 2512/2618 16009KT P6SM VCTS FEW050CB BKN110
     FM251500 16012G20KT P6SM SCT020 BKN050
     FM260300 17004KT P6SM SHRA VCTS BKN040CB BKN110 PROB30
      2604/2608 2SM TSRA SCT015 BKN040CB
     FM261100 36005KT P6SM FEW005 OVC250=

USA.gov is the U.S. government's official web portal to all federal, state and local government web resources and services.